sensor_id;sensor_type;location;lat;lon;timestamp;P1;durP1;ratioP1;P2;durP2;ratioP2
60935;SDS011;46804;51.786;19.520;2023-03-14T00:01:16;7.97;;;3.80;;
60935;SDS011;46804;51.786;19.520;2023-03-14T00:05:20;13.73;;;3.65;;
60935;SDS011;46804;51.786;19.520;2023-03-14T00:09:21;12.30;;;4.07;;
60935;SDS011;46804;51.786;19.520;2023-03-14T00:13:22;8.00;;;3.58;;
60935;SDS011;46804;51.786;19.520;2023-03-14T00:17:22;10.13;;;3.35;;
60935;SDS011;46804;51.786;19.520;2023-03-14T00:21:23;7.00;;;3.42;;
60935;SDS011;46804;51.786;19.520;2023-03-14T00:25:24;5.95;;;2.88;;
60935;SDS011;46804;51.786;19.520;2023-03-14T00:29:25;5.90;;;2.50;;
60935;SDS011;46804;51.786;19.520;2023-03-14T00:33:26;14.52;;;3.50;;
60935;SDS011;46804;51.786;19.520;2023-03-14T00:37:27;12.27;;;3.33;;
60935;SDS011;46804;51.786;19.520;2023-03-14T00:41:27;8.95;;;3.35;;
60935;SDS011;46804;51.786;19.520;2023-03-14T00:45:28;5.85;;;3.30;;
60935;SDS011;46804;51.786;19.520;2023-03-14T00:49:29;6.95;;;3.63;;
60935;SDS011;46804;51.786;19.520;2023-03-14T00:53:34;8.63;;;3.42;;
60935;SDS011;46804;51.786;19.520;2023-03-14T00:57:37;9.18;;;3.65;;
60935;SDS011;46804;51.786;19.520;2023-03-14T01:01:38;9.13;;;4.53;;
60935;SDS011;46804;51.786;19.520;2023-03-14T01:05:40;9.68;;;5.05;;
60935;SDS011;46804;51.786;19.520;2023-03-14T01:09:41;13.48;;;5.30;;
60935;SDS011;46804;51.786;19.520;2023-03-14T01:13:42;10.02;;;4.43;;
60935;SDS011;46804;51.786;19.520;2023-03-14T01:17:43;7.07;;;4.05;;
60935;SDS011;46804;51.786;19.520;2023-03-14T01:21:44;14.23;;;5.50;;
60935;SDS011;46804;51.786;19.520;2023-03-14T01:25:45;12.55;;;3.95;;
60935;SDS011;46804;51.786;19.520;2023-03-14T01:29:45;12.48;;;4.78;;
60935;SDS011;46804;51.786;19.520;2023-03-14T01:33:47;9.93;;;4.20;;
60935;SDS011;46804;51.786;19.520;2023-03-14T01:37:48;5.70;;;3.17;;
60935;SDS011;46804;51.786;19.520;2023-03-14T01:41:48;9.65;;;3.65;;
60935;SDS011;46804;51.786;19.520;2023-03-14T01:50:06;8.00;;;2.90;;
60935;SDS011;46804;51.786;19.520;2023-03-14T01:54:15;8.25;;;3.13;;
60935;SDS011;46804;51.786;19.520;2023-03-14T01:58:19;6.03;;;3.30;;
60935;SDS011;46804;51.786;19.520;2023-03-14T02:02:20;6.45;;;3.20;;
60935;SDS011;46804;51.786;19.520;2023-03-14T02:06:24;8.00;;;3.53;;
60935;SDS011;46804;51.786;19.520;2023-03-14T02:10:33;6.95;;;3.55;;
60935;SDS011;46804;51.786;19.520;2023-03-14T02:14:37;6.07;;;3.60;;
60935;SDS011;46804;51.786;19.520;2023-03-14T02:18:38;9.55;;;3.45;;
60935;SDS011;46804;51.786;19.520;2023-03-14T02:22:42;7.47;;;3.60;;
60935;SDS011;46804;51.786;19.520;2023-03-14T02:31:09;9.73;;;4.40;;
60935;SDS011;46804;51.786;19.520;2023-03-14T02:35:11;9.70;;;5.10;;
60935;SDS011;46804;51.786;19.520;2023-03-14T02:39:15;14.77;;;5.63;;
60935;SDS011;46804;51.786;19.520;2023-03-14T02:43:27;9.57;;;4.95;;
60935;SDS011;46804;51.786;19.520;2023-03-14T02:47:29;13.10;;;4.93;;
60935;SDS011;46804;51.786;19.520;2023-03-14T02:51:30;11.52;;;5.75;;
60935;SDS011;46804;51.786;19.520;2023-03-14T02:55:32;13.10;;;5.68;;
60935;SDS011;46804;51.786;19.520;2023-03-14T02:59:33;15.05;;;6.32;;
60935;SDS011;46804;51.786;19.520;2023-03-14T03:03:33;14.45;;;7.50;;
60935;SDS011;46804;51.786;19.520;2023-03-14T03:07:34;14.27;;;6.20;;
60935;SDS011;46804;51.786;19.520;2023-03-14T03:11:35;12.93;;;5.60;;
60935;SDS011;46804;51.786;19.520;2023-03-14T03:15:36;13.15;;;6.10;;
60935;SDS011;46804;51.786;19.520;2023-03-14T03:19:40;11.52;;;5.95;;
60935;SDS011;46804;51.786;19.520;2023-03-14T03:23:40;14.15;;;6.40;;
60935;SDS011;46804;51.786;19.520;2023-03-14T03:27:41;11.70;;;6.55;;
60935;SDS011;46804;51.786;19.520;2023-03-14T03:31:42;12.65;;;6.28;;
60935;SDS011;46804;51.786;19.520;2023-03-14T03:35:47;15.07;;;5.45;;
60935;SDS011;46804;51.786;19.520;2023-03-14T03:39:52;12.07;;;5.20;;
60935;SDS011;46804;51.786;19.520;2023-03-14T03:43:52;9.32;;;5.35;;
60935;SDS011;46804;51.786;19.520;2023-03-14T03:47:54;12.45;;;5.32;;
60935;SDS011;46804;51.786;19.520;2023-03-14T03:51:55;9.55;;;4.75;;
60935;SDS011;46804;51.786;19.520;2023-03-14T03:55:55;14.27;;;5.25;;
60935;SDS011;46804;51.786;19.520;2023-03-14T03:59:56;11.23;;;5.47;;
60935;SDS011;46804;51.786;19.520;2023-03-14T04:03:57;11.18;;;5.30;;
60935;SDS011;46804;51.786;19.520;2023-03-14T04:07:57;10.48;;;4.85;;
60935;SDS011;46804;51.786;19.520;2023-03-14T04:11:58;11.15;;;5.03;;
60935;SDS011;46804;51.786;19.520;2023-03-14T04:15:59;9.63;;;4.55;;
60935;SDS011;46804;51.786;19.520;2023-03-14T04:20:00;10.93;;;5.47;;
60935;SDS011;46804;51.786;19.520;2023-03-14T04:24:00;13.18;;;5.30;;
60935;SDS011;46804;51.786;19.520;2023-03-14T04:28:01;10.75;;;4.97;;
60935;SDS011;46804;51.786;19.520;2023-03-14T04:32:03;12.38;;;4.90;;
60935;SDS011;46804;51.786;19.520;2023-03-14T04:36:05;11.18;;;5.32;;
60935;SDS011;46804;51.786;19.520;2023-03-14T04:40:06;11.93;;;5.38;;
60935;SDS011;46804;51.786;19.520;2023-03-14T04:44:08;9.43;;;4.97;;
60935;SDS011;46804;51.786;19.520;2023-03-14T04:48:08;12.40;;;7.15;;
60935;SDS011;46804;51.786;19.520;2023-03-14T04:52:09;12.40;;;5.15;;
60935;SDS011;46804;51.786;19.520;2023-03-14T04:56:10;13.57;;;5.65;;
60935;SDS011;46804;51.786;19.520;2023-03-14T05:00:13;13.83;;;5.67;;
60935;SDS011;46804;51.786;19.520;2023-03-14T05:04:14;9.50;;;5.30;;
60935;SDS011;46804;51.786;19.520;2023-03-14T05:08:14;13.52;;;5.25;;
60935;SDS011;46804;51.786;19.520;2023-03-14T05:12:15;10.30;;;5.93;;
60935;SDS011;46804;51.786;19.520;2023-03-14T05:16:16;15.57;;;5.28;;
60935;SDS011;46804;51.786;19.520;2023-03-14T05:20:17;13.75;;;5.85;;
60935;SDS011;46804;51.786;19.520;2023-03-14T05:24:17;10.35;;;4.97;;
60935;SDS011;46804;51.786;19.520;2023-03-14T05:28:18;10.30;;;4.97;;
60935;SDS011;46804;51.786;19.520;2023-03-14T05:32:19;8.38;;;4.85;;
60935;SDS011;46804;51.786;19.520;2023-03-14T05:36:20;8.23;;;4.78;;
60935;SDS011;46804;51.786;19.520;2023-03-14T05:40:20;8.95;;;5.50;;
60935;SDS011;46804;51.786;19.520;2023-03-14T05:44:21;11.50;;;5.50;;
60935;SDS011;46804;51.786;19.520;2023-03-14T05:48:22;11.55;;;5.75;;
60935;SDS011;46804;51.786;19.520;2023-03-14T05:52:23;10.95;;;5.95;;
60935;SDS011;46804;51.786;19.520;2023-03-14T05:56:23;11.15;;;5.25;;
60935;SDS011;46804;51.786;19.520;2023-03-14T06:00:24;7.32;;;4.78;;
60935;SDS011;46804;51.786;19.520;2023-03-14T06:04:25;10.95;;;4.32;;
60935;SDS011;46804;51.786;19.520;2023-03-14T06:08:26;9.52;;;4.75;;
60935;SDS011;46804;51.786;19.520;2023-03-14T06:12:26;9.55;;;4.72;;
60935;SDS011;46804;51.786;19.520;2023-03-14T06:16:27;11.52;;;5.40;;
60935;SDS011;46804;51.786;19.520;2023-03-14T06:20:28;13.82;;;5.35;;
60935;SDS011;46804;51.786;19.520;2023-03-14T06:24:29;10.40;;;4.63;;
60935;SDS011;46804;51.786;19.520;2023-03-14T06:28:29;9.10;;;4.90;;
60935;SDS011;46804;51.786;19.520;2023-03-14T06:32:30;9.35;;;4.28;;
60935;SDS011;46804;51.786;19.520;2023-03-14T06:36:31;9.00;;;4.63;;
60935;SDS011;46804;51.786;19.520;2023-03-14T06:40:32;8.80;;;4.90;;
60935;SDS011;46804;51.786;19.520;2023-03-14T06:44:32;8.35;;;4.22;;
60935;SDS011;46804;51.786;19.520;2023-03-14T06:48:33;8.82;;;4.60;;
60935;SDS011;46804;51.786;19.520;2023-03-14T06:52:34;6.72;;;4.03;;
60935;SDS011;46804;51.786;19.520;2023-03-14T06:56:35;10.65;;;4.05;;
60935;SDS011;46804;51.786;19.520;2023-03-14T07:00:35;6.75;;;3.85;;
60935;SDS011;46804;51.786;19.520;2023-03-14T07:04:36;6.40;;;2.97;;
60935;SDS011;46804;51.786;19.520;2023-03-14T07:08:37;8.10;;;3.90;;
60935;SDS011;46804;51.786;19.520;2023-03-14T07:12:39;7.47;;;3.67;;
60935;SDS011;46804;51.786;19.520;2023-03-14T07:16:40;7.45;;;3.38;;
60935;SDS011;46804;51.786;19.520;2023-03-14T07:20:41;8.90;;;3.67;;
60935;SDS011;46804;51.786;19.520;2023-03-14T07:24:41;7.97;;;3.15;;
60935;SDS011;46804;51.786;19.520;2023-03-14T07:28:42;10.27;;;4.05;;
60935;SDS011;46804;51.786;19.520;2023-03-14T07:32:43;6.75;;;3.35;;
60935;SDS011;46804;51.786;19.520;2023-03-14T07:36:43;6.00;;;2.97;;
60935;SDS011;46804;51.786;19.520;2023-03-14T07:40:44;6.30;;;3.22;;
60935;SDS011;46804;51.786;19.520;2023-03-14T07:44:45;6.40;;;2.88;;
60935;SDS011;46804;51.786;19.520;2023-03-14T07:48:45;7.25;;;3.75;;
60935;SDS011;46804;51.786;19.520;2023-03-14T07:52:46;7.13;;;3.28;;
60935;SDS011;46804;51.786;19.520;2023-03-14T07:56:47;6.78;;;3.00;;
60935;SDS011;46804;51.786;19.520;2023-03-14T08:00:48;9.60;;;4.70;;
60935;SDS011;46804;51.786;19.520;2023-03-14T08:04:49;9.15;;;4.78;;
60935;SDS011;46804;51.786;19.520;2023-03-14T08:08:50;9.90;;;3.72;;
60935;SDS011;46804;51.786;19.520;2023-03-14T08:12:53;10.77;;;4.50;;
60935;SDS011;46804;51.786;19.520;2023-03-14T08:16:56;9.50;;;3.90;;
60935;SDS011;46804;51.786;19.520;2023-03-14T08:20:57;7.60;;;3.53;;
60935;SDS011;46804;51.786;19.520;2023-03-14T08:24:59;6.15;;;3.42;;
60935;SDS011;46804;51.786;19.520;2023-03-14T08:28:59;7.82;;;3.63;;
60935;SDS011;46804;51.786;19.520;2023-03-14T08:33:03;11.27;;;3.58;;
60935;SDS011;46804;51.786;19.520;2023-03-14T08:37:03;11.87;;;4.17;;
60935;SDS011;46804;51.786;19.520;2023-03-14T08:41:05;7.03;;;3.55;;
60935;SDS011;46804;51.786;19.520;2023-03-14T08:45:06;10.68;;;3.13;;
60935;SDS011;46804;51.786;19.520;2023-03-14T08:49:08;8.50;;;3.65;;
60935;SDS011;46804;51.786;19.520;2023-03-14T08:53:09;8.27;;;3.55;;
60935;SDS011;46804;51.786;19.520;2023-03-14T08:57:09;7.20;;;3.47;;
60935;SDS011;46804;51.786;19.520;2023-03-14T09:01:10;10.38;;;4.63;;
60935;SDS011;46804;51.786;19.520;2023-03-14T09:05:11;7.25;;;3.58;;
60935;SDS011;46804;51.786;19.520;2023-03-14T09:09:12;8.35;;;3.60;;
60935;SDS011;46804;51.786;19.520;2023-03-14T09:13:14;8.35;;;3.80;;
60935;SDS011;46804;51.786;19.520;2023-03-14T09:17:14;7.82;;;3.65;;
60935;SDS011;46804;51.786;19.520;2023-03-14T09:21:15;10.40;;;4.03;;
60935;SDS011;46804;51.786;19.520;2023-03-14T09:25:16;8.10;;;3.78;;
60935;SDS011;46804;51.786;19.520;2023-03-14T09:29:16;9.45;;;3.90;;
60935;SDS011;46804;51.786;19.520;2023-03-14T09:33:17;9.82;;;3.97;;
60935;SDS011;46804;51.786;19.520;2023-03-14T09:37:18;7.20;;;3.67;;
60935;SDS011;46804;51.786;19.520;2023-03-14T09:41:24;7.38;;;3.33;;
60935;SDS011;46804;51.786;19.520;2023-03-14T09:45:28;8.48;;;3.97;;
60935;SDS011;46804;51.786;19.520;2023-03-14T09:49:34;6.97;;;3.17;;
60935;SDS011;46804;51.786;19.520;2023-03-14T09:53:40;5.43;;;3.30;;
60935;SDS011;46804;51.786;19.520;2023-03-14T09:57:43;9.88;;;3.42;;
60935;SDS011;46804;51.786;19.520;2023-03-14T10:01:48;8.23;;;3.65;;
60935;SDS011;46804;51.786;19.520;2023-03-14T10:05:49;6.78;;;3.22;;
60935;SDS011;46804;51.786;19.520;2023-03-14T10:09:50;7.32;;;3.55;;
60935;SDS011;46804;51.786;19.520;2023-03-14T10:18:01;8.73;;;3.55;;
60935;SDS011;46804;51.786;19.520;2023-03-14T10:22:04;6.70;;;3.70;;
60935;SDS011;46804;51.786;19.520;2023-03-14T10:26:07;8.02;;;3.97;;
60935;SDS011;46804;51.786;19.520;2023-03-14T10:31:00;6.45;;;3.65;;
60935;SDS011;46804;51.786;19.520;2023-03-14T10:34:38;8.35;;;3.70;;
60935;SDS011;46804;51.786;19.520;2023-03-14T10:38:39;8.35;;;3.33;;
60935;SDS011;46804;51.786;19.520;2023-03-14T10:42:41;8.45;;;3.47;;
60935;SDS011;46804;51.786;19.520;2023-03-14T10:46:53;8.43;;;3.83;;
60935;SDS011;46804;51.786;19.520;2023-03-14T10:51:05;9.80;;;3.53;;
60935;SDS011;46804;51.786;19.520;2023-03-14T10:55:12;9.65;;;3.50;;
60935;SDS011;46804;51.786;19.520;2023-03-14T10:59:14;6.07;;;3.45;;
60935;SDS011;46804;51.786;19.520;2023-03-14T11:03:16;10.77;;;3.23;;
60935;SDS011;46804;51.786;19.520;2023-03-14T11:07:27;7.50;;;3.97;;
60935;SDS011;46804;51.786;19.520;2023-03-14T11:11:40;7.13;;;3.88;;
60935;SDS011;46804;51.786;19.520;2023-03-14T11:16:02;6.40;;;3.83;;
60935;SDS011;46804;51.786;19.520;2023-03-14T11:28:36;7.03;;;4.05;;
60935;SDS011;46804;51.786;19.520;2023-03-14T11:36:46;8.88;;;3.90;;
60935;SDS011;46804;51.786;19.520;2023-03-14T11:40:53;8.85;;;3.95;;
60935;SDS011;46804;51.786;19.520;2023-03-14T11:44:57;7.50;;;3.78;;
60935;SDS011;46804;51.786;19.520;2023-03-14T11:49:08;7.85;;;4.20;;
60935;SDS011;46804;51.786;19.520;2023-03-14T11:53:36;7.35;;;3.97;;
60935;SDS011;46804;51.786;19.520;2023-03-14T11:57:43;8.27;;;3.92;;
60935;SDS011;46804;51.786;19.520;2023-03-14T12:06:24;8.73;;;4.63;;
60935;SDS011;46804;51.786;19.520;2023-03-14T12:10:28;7.13;;;4.35;;
60935;SDS011;46804;51.786;19.520;2023-03-14T12:14:34;8.55;;;4.78;;
60935;SDS011;46804;51.786;19.520;2023-03-14T12:18:38;12.20;;;4.90;;
60935;SDS011;46804;51.786;19.520;2023-03-14T12:22:50;12.63;;;4.97;;
60935;SDS011;46804;51.786;19.520;2023-03-14T12:26:56;10.30;;;5.18;;
60935;SDS011;46804;51.786;19.520;2023-03-14T12:31:51;9.65;;;5.25;;
60935;SDS011;46804;51.786;19.520;2023-03-14T12:43:54;15.75;;;6.88;;
60935;SDS011;46804;51.786;19.520;2023-03-14T12:52:15;34.17;;;22.77;;
60935;SDS011;46804;51.786;19.520;2023-03-14T12:56:25;83.22;;;23.00;;
60935;SDS011;46804;51.786;19.520;2023-03-14T13:00:45;15.80;;;7.63;;
60935;SDS011;46804;51.786;19.520;2023-03-14T13:05:02;23.27;;;11.40;;
60935;SDS011;46804;51.786;19.520;2023-03-14T13:13:34;21.45;;;9.40;;
60935;SDS011;46804;51.786;19.520;2023-03-14T13:17:36;37.58;;;17.02;;
60935;SDS011;46804;51.786;19.520;2023-03-14T13:21:36;38.63;;;15.45;;
60935;SDS011;46804;51.786;19.520;2023-03-14T13:25:38;19.45;;;10.63;;
60935;SDS011;46804;51.786;19.520;2023-03-14T13:29:38;14.63;;;8.68;;
60935;SDS011;46804;51.786;19.520;2023-03-14T13:33:39;21.27;;;10.52;;
60935;SDS011;46804;51.786;19.520;2023-03-14T13:37:41;15.38;;;7.68;;
60935;SDS011;46804;51.786;19.520;2023-03-14T13:41:41;18.42;;;8.50;;
60935;SDS011;46804;51.786;19.520;2023-03-14T13:45:48;16.92;;;8.95;;
60935;SDS011;46804;51.786;19.520;2023-03-14T13:49:51;16.27;;;8.98;;
60935;SDS011;46804;51.786;19.520;2023-03-14T13:53:54;15.73;;;7.55;;
60935;SDS011;46804;51.786;19.520;2023-03-14T13:57:55;26.20;;;11.40;;
60935;SDS011;46804;51.786;19.520;2023-03-14T14:01:57;20.13;;;10.75;;
60935;SDS011;46804;51.786;19.520;2023-03-14T14:06:01;21.38;;;10.35;;
60935;SDS011;46804;51.786;19.520;2023-03-14T14:10:02;22.73;;;11.98;;
60935;SDS011;46804;51.786;19.520;2023-03-14T14:14:03;17.30;;;9.30;;
60935;SDS011;46804;51.786;19.520;2023-03-14T14:18:07;17.30;;;10.77;;
60935;SDS011;46804;51.786;19.520;2023-03-14T14:22:11;19.55;;;9.68;;
60935;SDS011;46804;51.786;19.520;2023-03-14T14:26:14;26.63;;;10.05;;
60935;SDS011;46804;51.786;19.520;2023-03-14T14:34:19;14.20;;;8.00;;
60935;SDS011;46804;51.786;19.520;2023-03-14T14:38:20;13.52;;;7.30;;
60935;SDS011;46804;51.786;19.520;2023-03-14T14:42:21;14.90;;;8.63;;
60935;SDS011;46804;51.786;19.520;2023-03-14T14:46:28;16.60;;;8.02;;
60935;SDS011;46804;51.786;19.520;2023-03-14T14:50:32;10.45;;;6.18;;
60935;SDS011;46804;51.786;19.520;2023-03-14T14:54:38;16.60;;;7.75;;
60935;SDS011;46804;51.786;19.520;2023-03-14T14:58:46;23.27;;;11.05;;
60935;SDS011;46804;51.786;19.520;2023-03-14T15:02:48;15.82;;;7.95;;
60935;SDS011;46804;51.786;19.520;2023-03-14T15:06:52;18.42;;;7.97;;
60935;SDS011;46804;51.786;19.520;2023-03-14T15:10:54;22.05;;;8.70;;
60935;SDS011;46804;51.786;19.520;2023-03-14T15:14:55;10.77;;;5.20;;
60935;SDS011;46804;51.786;19.520;2023-03-14T15:18:58;16.02;;;6.53;;
60935;SDS011;46804;51.786;19.520;2023-03-14T15:23:00;13.15;;;5.78;;
60935;SDS011;46804;51.786;19.520;2023-03-14T15:27:01;13.98;;;6.90;;
60935;SDS011;46804;51.786;19.520;2023-03-14T15:31:02;13.82;;;7.18;;
60935;SDS011;46804;51.786;19.520;2023-03-14T15:35:03;13.93;;;7.90;;
60935;SDS011;46804;51.786;19.520;2023-03-14T15:39:06;10.27;;;5.78;;
60935;SDS011;46804;51.786;19.520;2023-03-14T15:43:08;11.90;;;6.13;;
60935;SDS011;46804;51.786;19.520;2023-03-14T15:47:10;12.50;;;6.90;;
60935;SDS011;46804;51.786;19.520;2023-03-14T15:51:12;13.20;;;6.68;;
60935;SDS011;46804;51.786;19.520;2023-03-14T15:55:14;12.00;;;6.68;;
60935;SDS011;46804;51.786;19.520;2023-03-14T15:59:16;15.73;;;8.00;;
60935;SDS011;46804;51.786;19.520;2023-03-14T16:03:17;15.57;;;7.28;;
60935;SDS011;46804;51.786;19.520;2023-03-14T16:07:19;13.27;;;7.40;;
60935;SDS011;46804;51.786;19.520;2023-03-14T16:11:20;12.52;;;6.20;;
60935;SDS011;46804;51.786;19.520;2023-03-14T16:15:27;15.15;;;7.45;;
60935;SDS011;46804;51.786;19.520;2023-03-14T16:19:29;11.35;;;6.63;;
60935;SDS011;46804;51.786;19.520;2023-03-14T16:23:34;17.90;;;8.15;;
60935;SDS011;46804;51.786;19.520;2023-03-14T16:27:35;13.60;;;8.10;;
60935;SDS011;46804;51.786;19.520;2023-03-14T16:31:38;15.43;;;8.75;;
60935;SDS011;46804;51.786;19.520;2023-03-14T16:35:55;18.48;;;8.00;;
60935;SDS011;46804;51.786;19.520;2023-03-14T16:39:57;19.33;;;8.30;;
60935;SDS011;46804;51.786;19.520;2023-03-14T16:43:59;17.65;;;8.75;;
60935;SDS011;46804;51.786;19.520;2023-03-14T16:48:04;18.85;;;11.23;;
60935;SDS011;46804;51.786;19.520;2023-03-14T16:52:05;19.93;;;10.43;;
60935;SDS011;46804;51.786;19.520;2023-03-14T16:56:09;19.90;;;10.38;;
60935;SDS011;46804;51.786;19.520;2023-03-14T17:00:11;50.83;;;28.83;;
60935;SDS011;46804;51.786;19.520;2023-03-14T17:04:14;33.22;;;23.55;;
60935;SDS011;46804;51.786;19.520;2023-03-14T17:08:16;20.65;;;12.25;;
60935;SDS011;46804;51.786;19.520;2023-03-14T17:12:20;25.08;;;13.90;;
60935;SDS011;46804;51.786;19.520;2023-03-14T17:16:20;22.95;;;13.30;;
60935;SDS011;46804;51.786;19.520;2023-03-14T17:20:22;20.92;;;10.75;;
60935;SDS011;46804;51.786;19.520;2023-03-14T17:24:22;33.95;;;16.20;;
60935;SDS011;46804;51.786;19.520;2023-03-14T17:28:24;32.20;;;15.45;;
60935;SDS011;46804;51.786;19.520;2023-03-14T17:32:25;33.25;;;14.73;;
60935;SDS011;46804;51.786;19.520;2023-03-14T17:36:26;22.05;;;11.52;;
60935;SDS011;46804;51.786;19.520;2023-03-14T17:40:30;30.65;;;14.68;;
60935;SDS011;46804;51.786;19.520;2023-03-14T17:44:31;22.75;;;11.57;;
60935;SDS011;46804;51.786;19.520;2023-03-14T17:48:32;20.80;;;11.05;;
60935;SDS011;46804;51.786;19.520;2023-03-14T17:52:34;24.90;;;11.95;;
60935;SDS011;46804;51.786;19.520;2023-03-14T17:56:35;32.65;;;12.73;;
60935;SDS011;46804;51.786;19.520;2023-03-14T18:00:36;28.80;;;13.63;;
60935;SDS011;46804;51.786;19.520;2023-03-14T18:04:37;39.28;;;14.68;;
60935;SDS011;46804;51.786;19.520;2023-03-14T18:08:38;31.42;;;13.35;;
60935;SDS011;46804;51.786;19.520;2023-03-14T18:12:43;26.05;;;11.85;;
60935;SDS011;46804;51.786;19.520;2023-03-14T18:16:44;28.95;;;17.17;;
60935;SDS011;46804;51.786;19.520;2023-03-14T18:20:49;25.90;;;11.27;;
60935;SDS011;46804;51.786;19.520;2023-03-14T18:24:51;26.70;;;12.23;;
60935;SDS011;46804;51.786;19.520;2023-03-14T18:28:52;28.80;;;13.13;;
60935;SDS011;46804;51.786;19.520;2023-03-14T18:32:53;20.27;;;10.13;;
60935;SDS011;46804;51.786;19.520;2023-03-14T18:36:54;17.13;;;9.85;;
60935;SDS011;46804;51.786;19.520;2023-03-14T18:40:55;15.98;;;9.52;;
60935;SDS011;46804;51.786;19.520;2023-03-14T18:44:56;19.95;;;10.52;;
60935;SDS011;46804;51.786;19.520;2023-03-14T18:48:57;22.08;;;11.77;;
60935;SDS011;46804;51.786;19.520;2023-03-14T18:53:03;19.92;;;11.18;;
60935;SDS011;46804;51.786;19.520;2023-03-14T18:57:03;27.98;;;9.20;;
60935;SDS011;46804;51.786;19.520;2023-03-14T19:01:04;20.67;;;9.73;;
60935;SDS011;46804;51.786;19.520;2023-03-14T19:05:05;17.13;;;9.88;;
60935;SDS011;46804;51.786;19.520;2023-03-14T19:09:10;20.70;;;11.07;;
60935;SDS011;46804;51.786;19.520;2023-03-14T19:13:13;20.27;;;12.07;;
60935;SDS011;46804;51.786;19.520;2023-03-14T19:17:14;20.17;;;12.43;;
60935;SDS011;46804;51.786;19.520;2023-03-14T19:21:20;20.50;;;11.52;;
60935;SDS011;46804;51.786;19.520;2023-03-14T19:25:26;24.25;;;11.85;;
60935;SDS011;46804;51.786;19.520;2023-03-14T19:29:27;26.38;;;14.50;;
60935;SDS011;46804;51.786;19.520;2023-03-14T19:33:28;23.63;;;12.20;;
60935;SDS011;46804;51.786;19.520;2023-03-14T19:37:30;22.92;;;12.05;;
60935;SDS011;46804;51.786;19.520;2023-03-14T19:41:31;15.07;;;9.13;;
60935;SDS011;46804;51.786;19.520;2023-03-14T19:45:32;14.23;;;8.95;;
60935;SDS011;46804;51.786;19.520;2023-03-14T19:49:33;18.65;;;10.13;;
60935;SDS011;46804;51.786;19.520;2023-03-14T19:53:34;18.55;;;8.77;;
60935;SDS011;46804;51.786;19.520;2023-03-14T19:57:35;20.73;;;11.10;;
60935;SDS011;46804;51.786;19.520;2023-03-14T20:01:36;14.02;;;9.05;;
60935;SDS011;46804;51.786;19.520;2023-03-14T20:05:38;19.15;;;10.25;;
60935;SDS011;46804;51.786;19.520;2023-03-14T20:09:41;17.08;;;9.55;;
60935;SDS011;46804;51.786;19.520;2023-03-14T20:13:42;17.63;;;9.75;;
60935;SDS011;46804;51.786;19.520;2023-03-14T20:17:44;16.95;;;9.25;;
60935;SDS011;46804;51.786;19.520;2023-03-14T20:21:46;20.95;;;10.70;;
60935;SDS011;46804;51.786;19.520;2023-03-14T20:25:53;22.52;;;10.52;;
60935;SDS011;46804;51.786;19.520;2023-03-14T20:29:55;21.98;;;11.82;;
60935;SDS011;46804;51.786;19.520;2023-03-14T20:33:57;16.20;;;8.90;;
60935;SDS011;46804;51.786;19.520;2023-03-14T20:37:57;29.05;;;13.85;;
60935;SDS011;46804;51.786;19.520;2023-03-14T20:41:58;15.07;;;8.40;;
60935;SDS011;46804;51.786;19.520;2023-03-14T20:45:59;27.48;;;11.52;;
60935;SDS011;46804;51.786;19.520;2023-03-14T20:50:01;20.70;;;11.02;;
60935;SDS011;46804;51.786;19.520;2023-03-14T20:54:03;17.45;;;7.82;;
60935;SDS011;46804;51.786;19.520;2023-03-14T20:58:04;15.15;;;8.25;;
60935;SDS011;46804;51.786;19.520;2023-03-14T21:02:04;16.90;;;7.75;;
60935;SDS011;46804;51.786;19.520;2023-03-14T21:06:08;16.70;;;8.20;;
60935;SDS011;46804;51.786;19.520;2023-03-14T21:10:11;13.45;;;7.38;;
60935;SDS011;46804;51.786;19.520;2023-03-14T21:14:13;13.55;;;7.85;;
60935;SDS011;46804;51.786;19.520;2023-03-14T21:18:14;17.45;;;8.20;;
60935;SDS011;46804;51.786;19.520;2023-03-14T21:22:15;14.93;;;8.15;;
60935;SDS011;46804;51.786;19.520;2023-03-14T21:26:17;14.57;;;7.93;;
60935;SDS011;46804;51.786;19.520;2023-03-14T21:30:18;14.27;;;7.60;;
60935;SDS011;46804;51.786;19.520;2023-03-14T21:34:19;13.90;;;7.15;;
60935;SDS011;46804;51.786;19.520;2023-03-14T21:38:20;16.27;;;8.20;;
60935;SDS011;46804;51.786;19.520;2023-03-14T21:42:21;13.70;;;8.23;;
60935;SDS011;46804;51.786;19.520;2023-03-14T21:46:23;11.00;;;6.93;;
60935;SDS011;46804;51.786;19.520;2023-03-14T21:50:25;13.82;;;8.23;;
60935;SDS011;46804;51.786;19.520;2023-03-14T21:54:26;15.10;;;7.85;;
60935;SDS011;46804;51.786;19.520;2023-03-14T21:58:28;10.65;;;5.90;;
60935;SDS011;46804;51.786;19.520;2023-03-14T22:02:29;13.10;;;7.53;;
60935;SDS011;46804;51.786;19.520;2023-03-14T22:06:31;12.35;;;6.13;;
60935;SDS011;46804;51.786;19.520;2023-03-14T22:10:32;10.25;;;6.28;;
60935;SDS011;46804;51.786;19.520;2023-03-14T22:14:32;9.77;;;5.55;;
60935;SDS011;46804;51.786;19.520;2023-03-14T22:18:33;11.52;;;5.50;;
60935;SDS011;46804;51.786;19.520;2023-03-14T22:22:35;9.68;;;5.82;;
60935;SDS011;46804;51.786;19.520;2023-03-14T22:26:38;13.18;;;6.10;;
60935;SDS011;46804;51.786;19.520;2023-03-14T22:30:39;12.45;;;5.95;;
60935;SDS011;46804;51.786;19.520;2023-03-14T22:34:39;9.00;;;5.90;;
60935;SDS011;46804;51.786;19.520;2023-03-14T22:38:40;6.32;;;4.65;;
60935;SDS011;46804;51.786;19.520;2023-03-14T22:42:41;9.68;;;5.60;;
60935;SDS011;46804;51.786;19.520;2023-03-14T22:46:41;9.93;;;5.13;;
60935;SDS011;46804;51.786;19.520;2023-03-14T22:50:42;8.32;;;4.63;;
60935;SDS011;46804;51.786;19.520;2023-03-14T22:54:43;6.95;;;3.88;;
60935;SDS011;46804;51.786;19.520;2023-03-14T22:58:43;5.57;;;3.60;;
60935;SDS011;46804;51.786;19.520;2023-03-14T23:02:44;6.97;;;2.95;;
60935;SDS011;46804;51.786;19.520;2023-03-14T23:06:45;4.32;;;2.60;;
60935;SDS011;46804;51.786;19.520;2023-03-14T23:10:46;4.18;;;2.67;;
60935;SDS011;46804;51.786;19.520;2023-03-14T23:14:46;2.63;;;2.03;;
60935;SDS011;46804;51.786;19.520;2023-03-14T23:18:47;2.95;;;1.80;;
60935;SDS011;46804;51.786;19.520;2023-03-14T23:22:47;2.85;;;1.63;;
60935;SDS011;46804;51.786;19.520;2023-03-14T23:26:48;2.90;;;1.70;;
60935;SDS011;46804;51.786;19.520;2023-03-14T23:30:53;2.25;;;1.70;;
60935;SDS011;46804;51.786;19.520;2023-03-14T23:34:55;4.30;;;2.10;;
60935;SDS011;46804;51.786;19.520;2023-03-14T23:38:56;2.10;;;1.65;;
60935;SDS011;46804;51.786;19.520;2023-03-14T23:42:56;4.03;;;1.85;;
60935;SDS011;46804;51.786;19.520;2023-03-14T23:46:57;3.53;;;1.70;;
60935;SDS011;46804;51.786;19.520;2023-03-14T23:50:59;3.83;;;2.10;;
60935;SDS011;46804;51.786;19.520;2023-03-14T23:55:02;2.90;;;1.80;;
60935;SDS011;46804;51.786;19.520;2023-03-14T23:59:03;2.00;;;1.60;;
